createdAt,value
2023-04-03T00:01:16.353Z,42.60
2023-04-03T00:03:44.850Z,42.17
2023-04-03T00:06:14.042Z,43.70
2023-04-03T00:08:42.509Z,42.07
2023-04-03T00:11:11.875Z,41.90
2023-04-03T00:13:40.981Z,42.20
2023-04-03T00:16:11.884Z,43.07
2023-04-03T00:18:41.872Z,41.43
2023-04-03T00:21:12.261Z,43.43
2023-04-03T00:23:40.357Z,41.43
2023-04-03T00:26:08.393Z,43.10
2023-04-03T00:28:36.463Z,42.37
2023-04-03T00:31:04.893Z,42.87
2023-04-03T00:33:34.260Z,41.83
2023-04-03T00:36:07.518Z,42.17
2023-04-03T00:38:35.634Z,41.30
2023-04-03T00:41:03.850Z,42.23
2023-04-03T00:43:32.351Z,41.40
2023-04-03T00:46:01.548Z,42.70
2023-04-03T00:48:33.365Z,41.47
2023-04-03T00:51:04.509Z,41.23
2023-04-03T00:53:35.498Z,41.13
2023-04-03T00:56:05.026Z,41.83
2023-04-03T00:58:39.147Z,42.97
2023-04-03T01:01:10.099Z,42.37
2023-04-03T01:03:38.210Z,41.77
2023-04-03T01:06:08.133Z,42.27
2023-04-03T01:08:36.974Z,41.53
2023-04-03T01:11:05.691Z,42.40
2023-04-03T01:13:35.291Z,41.17
2023-04-03T01:16:04.419Z,41.57
2023-04-03T01:18:34.014Z,40.17
2023-04-03T01:21:39.053Z,41.97
2023-04-03T01:24:23.621Z,41.10
2023-04-03T01:26:51.981Z,40.70
2023-04-03T01:29:20.325Z,40.03
2023-04-03T01:31:54.429Z,40.03
2023-04-03T01:34:22.701Z,40.87
2023-04-03T01:36:51.591Z,40.30
2023-04-03T01:39:19.772Z,41.97
2023-04-03T01:41:48.037Z,40.13
2023-04-03T01:44:16.676Z,40.10
2023-04-03T01:46:44.667Z,40.00
2023-04-03T01:49:14.052Z,41.17
2023-04-03T01:51:42.030Z,39.73
2023-04-03T01:54:10.052Z,40.40
2023-04-03T01:56:39.296Z,39.10
2023-04-03T01:59:07.287Z,40.83
2023-04-03T02:01:35.399Z,39.60
2023-04-03T02:04:03.466Z,39.80
2023-04-03T02:06:32.817Z,39.70
2023-04-03T02:09:00.975Z,39.23
2023-04-03T02:11:28.970Z,39.77
2023-04-03T02:13:56.896Z,39.33
2023-04-03T02:16:25.252Z,39.57
2023-04-03T02:18:53.261Z,40.77
2023-04-03T02:21:21.224Z,41.13
2023-04-03T02:23:50.819Z,39.67
2023-04-03T02:26:19.578Z,40.33
2023-04-03T02:28:47.775Z,38.43
2023-04-03T02:31:16.197Z,39.37
2023-04-03T02:33:44.212Z,38.90
2023-04-03T02:36:12.535Z,39.00
2023-04-03T02:38:40.772Z,38.10
2023-04-03T02:41:12.367Z,39.83
2023-04-03T02:43:40.800Z,38.40
2023-04-03T02:46:09.207Z,39.63
2023-04-03T02:48:37.371Z,38.53
2023-04-03T02:51:05.707Z,38.53
2023-04-03T02:53:33.708Z,38.33
2023-04-03T02:56:01.678Z,37.80
2023-04-03T02:58:31.080Z,38.77
2023-04-03T03:00:59.027Z,38.70
2023-04-03T03:03:26.977Z,37.50
2023-04-03T03:06:04.229Z,37.30
2023-04-03T03:08:32.263Z,38.20
2023-04-03T03:11:00.375Z,37.37
2023-04-03T03:13:28.529Z,37.67
2023-04-03T03:15:58.297Z,37.40
2023-04-03T03:18:26.382Z,38.90
2023-04-03T03:20:55.252Z,37.10
2023-04-03T03:23:24.686Z,38.37
2023-04-03T03:25:57.041Z,37.43
2023-04-03T03:28:25.058Z,39.10
2023-04-03T03:30:53.394Z,37.37
2023-04-03T03:33:22.818Z,37.80
2023-04-03T03:35:50.824Z,36.97
2023-04-03T03:38:18.818Z,38.40
2023-04-03T03:40:46.827Z,38.03
2023-04-03T03:43:14.803Z,38.13
2023-04-03T03:45:42.792Z,37.57
2023-04-03T03:48:11.111Z,37.93
2023-04-03T03:50:40.469Z,37.27
2023-04-03T03:53:08.892Z,38.93
2023-04-03T03:55:37.265Z,37.13
2023-04-03T03:58:05.568Z,37.83
2023-04-03T04:00:33.569Z,36.60
2023-04-03T04:03:01.801Z,37.47
2023-04-03T04:05:29.910Z,36.30
2023-04-03T04:07:59.246Z,37.00
2023-04-03T04:10:27.213Z,39.83
2023-04-03T04:12:57.460Z,36.43
2023-04-03T04:15:26.857Z,38.43
2023-04-03T04:17:55.254Z,34.63
2023-04-03T04:20:23.438Z,35.63
2023-04-03T04:22:51.385Z,33.00
2023-04-03T04:25:20.712Z,34.47
2023-04-03T04:27:48.795Z,32.37
2023-04-03T04:30:16.958Z,34.90
2023-04-03T04:32:45.043Z,34.77
2023-04-03T04:35:15.430Z,33.57
2023-04-03T04:37:44.743Z,33.40
2023-04-03T04:40:13.388Z,33.83
2023-04-03T04:42:42.722Z,34.23
2023-04-03T04:45:11.453Z,33.17
2023-04-03T04:47:39.460Z,33.17
2023-04-03T04:50:08.472Z,34.60
2023-04-03T04:52:36.477Z,34.40
2023-04-03T04:55:04.852Z,35.30
2023-04-03T04:57:33.066Z,34.93
2023-04-03T05:00:02.554Z,34.47
2023-04-03T05:02:30.613Z,36.70
2023-04-03T05:04:58.648Z,35.60
2023-04-03T05:07:26.715Z,36.43
2023-04-03T05:09:54.702Z,35.33
2023-04-03T05:12:23.035Z,36.00
2023-04-03T05:14:51.052Z,36.27
2023-04-03T05:17:20.418Z,36.23
2023-04-03T05:19:48.451Z,35.03
2023-04-03T05:22:16.494Z,35.73
2023-04-03T05:24:44.472Z,34.20
2023-04-03T05:27:12.467Z,35.93
2023-04-03T05:29:40.724Z,35.13
2023-04-03T05:32:08.702Z,35.50
2023-04-03T05:34:38.383Z,36.03
2023-04-03T05:37:06.488Z,36.40
2023-04-03T05:39:34.928Z,36.23
2023-04-03T05:42:02.915Z,35.20
2023-04-03T05:44:31.074Z,36.33
2023-04-03T05:46:59.056Z,35.40
2023-04-03T05:49:27.096Z,36.57
2023-04-03T05:51:56.471Z,35.80
2023-04-03T05:54:26.747Z,37.40
2023-04-03T05:56:55.651Z,37.40
2023-04-03T05:59:23.956Z,37.50
2023-04-03T06:01:51.979Z,37.60
2023-04-03T06:04:20.959Z,36.37
2023-04-03T06:06:52.502Z,36.37
2023-04-03T06:09:23.820Z,38.33
2023-04-03T06:11:52.257Z,37.60
2023-04-03T06:14:20.750Z,38.07
2023-04-03T06:16:49.305Z,37.97
2023-04-03T06:19:17.343Z,38.00
2023-04-03T06:21:45.545Z,37.83
2023-04-03T06:24:16.691Z,37.00
2023-04-03T06:26:46.634Z,40.00
2023-04-03T06:29:14.669Z,39.13
2023-04-03T06:31:42.696Z,39.93
2023-04-03T06:34:11.900Z,38.67
2023-04-03T06:36:40.410Z,38.77
2023-04-03T06:39:09.384Z,39.93
2023-04-03T06:41:37.381Z,39.40
2023-04-03T06:44:07.255Z,39.60
2023-04-03T06:46:35.286Z,40.33
2023-04-03T06:49:03.454Z,40.60
2023-04-03T06:51:32.300Z,41.87
2023-04-03T06:54:01.744Z,42.20
2023-04-03T06:56:29.925Z,43.90
2023-04-03T06:58:59.062Z,43.33
2023-04-03T07:01:29.961Z,43.27
2023-04-03T07:03:58.465Z,42.27
2023-04-03T07:06:28.101Z,44.33
2023-04-03T07:08:57.162Z,42.77
2023-04-03T07:11:25.271Z,44.93
2023-04-03T07:13:53.306Z,43.00
2023-04-03T07:16:21.697Z,46.77
2023-04-03T07:18:51.195Z,46.47
2023-04-03T07:21:19.219Z,48.50
2023-04-03T07:26:15.163Z,48.93
2023-04-03T07:28:43.168Z,48.73
2023-04-03T07:31:14.421Z,50.27
2023-04-03T07:33:43.276Z,49.43
2023-04-03T07:36:18.540Z,48.30
2023-04-03T07:38:46.955Z,49.10
2023-04-03T07:41:18.498Z,48.57
2023-04-03T07:43:47.548Z,50.03
2023-04-03T07:46:15.769Z,47.87
2023-04-03T07:48:43.751Z,49.77
2023-04-03T07:51:13.907Z,48.17
2023-04-03T07:53:41.909Z,49.60
2023-04-03T07:56:10.652Z,52.07
2023-04-03T07:58:39.211Z,52.00
2023-04-03T08:01:07.208Z,52.33
2023-04-03T08:03:35.312Z,54.57
2023-04-03T08:06:06.170Z,54.07
2023-04-03T08:08:36.802Z,53.97
2023-04-03T08:11:06.566Z,53.50
2023-04-03T08:13:36.530Z,55.77
2023-04-03T08:16:11.245Z,54.00
2023-04-03T08:18:40.070Z,52.70
2023-04-03T08:21:09.761Z,55.47
2023-04-03T08:23:39.350Z,53.07
2023-04-03T08:26:12.646Z,54.13
2023-04-03T08:28:41.474Z,54.83
2023-04-03T08:31:13.905Z,53.37
2023-04-03T08:33:42.347Z,54.83
2023-04-03T08:36:19.795Z,55.23
2023-04-03T08:38:49.495Z,54.77
2023-04-03T08:41:22.798Z,55.90
2023-04-03T08:44:00.870Z,53.63
2023-04-03T08:46:44.869Z,57.70
2023-04-03T08:49:20.571Z,54.30
2023-04-03T08:51:50.895Z,55.63
2023-04-03T08:54:27.537Z,54.87
2023-04-03T08:56:56.959Z,56.97
2023-04-03T08:59:31.294Z,58.23
2023-04-03T09:02:03.246Z,56.47
2023-04-03T09:04:34.516Z,60.87
2023-04-03T09:07:09.511Z,59.00
2023-04-03T09:09:42.976Z,57.93
2023-04-03T09:12:19.175Z,57.10
2023-04-03T09:14:59.374Z,58.67
2023-04-03T09:17:39.205Z,62.07
2023-04-03T09:20:20.717Z,58.50
2023-04-03T09:22:52.694Z,62.93
2023-04-03T09:25:25.077Z,62.10
2023-04-03T09:27:53.855Z,62.03
2023-04-03T09:30:23.398Z,66.23
2023-04-03T09:32:53.681Z,66.87
2023-04-03T09:35:32.759Z,65.83
2023-04-03T09:38:19.462Z,63.47
2023-04-03T09:40:50.771Z,63.43
2023-04-03T09:43:26.397Z,63.40
2023-04-03T09:45:55.603Z,63.03
2023-04-03T09:48:25.226Z,66.87
2023-04-03T09:51:00.169Z,65.33
2023-04-03T09:53:37.882Z,65.10
2023-04-03T09:56:22.703Z,63.30
2023-04-03T09:58:52.674Z,64.77
2023-04-03T10:01:28.378Z,64.10
2023-04-03T10:04:11.354Z,63.57
2023-04-03T10:06:44.290Z,65.37
2023-04-03T10:09:21.472Z,68.77
2023-04-03T10:12:08.085Z,71.73
2023-04-03T10:14:37.531Z,70.40
2023-04-03T10:17:16.317Z,68.67
2023-04-03T10:19:47.870Z,71.73
2023-04-03T10:22:22.172Z,71.20
2023-04-03T10:24:57.345Z,73.77
2023-04-03T10:27:39.746Z,74.07
2023-04-03T10:30:21.680Z,72.77
2023-04-03T10:33:00.067Z,70.57
2023-04-03T10:35:41.598Z,75.63
2023-04-03T10:38:18.874Z,79.13
2023-04-03T10:40:54.050Z,74.97
2023-04-03T10:43:32.747Z,78.93
2023-04-03T10:46:05.961Z,77.60
2023-04-03T10:48:47.907Z,78.17
2023-04-03T10:51:26.348Z,85.90
2023-04-03T10:54:02.718Z,83.27
2023-04-03T10:56:37.868Z,88.73
2023-04-03T10:59:18.974Z,83.20
2023-04-03T11:01:50.948Z,82.13
2023-04-03T11:04:22.181Z,83.80
2023-04-03T11:06:55.774Z,82.57
2023-04-03T11:09:28.175Z,84.43
2023-04-03T11:12:02.616Z,80.03
2023-04-03T11:14:35.771Z,84.23
2023-04-03T11:17:25.975Z,80.97
2023-04-03T11:20:03.433Z,78.93
2023-04-03T11:22:35.836Z,79.47
2023-04-03T11:25:08.966Z,76.90
2023-04-03T11:27:44.647Z,81.23
2023-04-03T11:30:20.069Z,79.20
2023-04-03T11:33:04.333Z,79.17
2023-04-03T11:35:34.030Z,80.47
2023-04-03T11:38:06.631Z,81.23
2023-04-03T11:40:38.528Z,82.90
2023-04-03T11:43:09.698Z,82.70
2023-04-03T11:45:51.753Z,83.77
2023-04-03T11:48:48.168Z,86.27
2023-04-03T11:51:42.107Z,85.73
2023-04-03T11:54:46.158Z,85.77
2023-04-03T11:57:48.792Z,83.27
2023-04-03T12:00:51.663Z,85.77
2023-04-03T12:03:51.186Z,83.67
2023-04-03T12:06:57.403Z,85.07
2023-04-03T12:09:28.395Z,83.77
2023-04-03T12:11:59.275Z,83.93
2023-04-03T12:14:29.407Z,84.30
2023-04-03T12:17:00.895Z,79.73
2023-04-03T12:19:42.430Z,84.17
2023-04-03T12:22:16.877Z,80.67
2023-04-03T12:24:47.909Z,80.90
2023-04-03T12:27:25.577Z,81.43
2023-04-03T12:29:58.789Z,79.90
2023-04-03T12:32:50.552Z,81.97
2023-04-03T12:35:27.307Z,83.23
2023-04-03T12:38:37.563Z,84.47
2023-04-03T12:41:23.845Z,82.00
2023-04-03T12:44:11.310Z,83.57
2023-04-03T12:46:41.989Z,83.80
2023-04-03T12:49:26.828Z,86.07
2023-04-03T12:51:55.529Z,85.93
2023-04-03T12:54:28.590Z,84.57
2023-04-03T12:57:12.195Z,84.80
2023-04-03T12:59:40.498Z,83.77
2023-04-03T13:02:22.488Z,83.93
2023-04-03T13:04:53.245Z,81.97
2023-04-03T13:07:23.690Z,80.17
2023-04-03T13:09:59.983Z,79.90
2023-04-03T13:12:29.735Z,81.33
2023-04-03T13:15:01.310Z,77.80
2023-04-03T13:17:30.380Z,78.63
2023-04-03T13:20:12.551Z,77.57
2023-04-03T13:22:45.743Z,81.20
2023-04-03T13:25:17.123Z,78.13
2023-04-03T13:27:45.866Z,78.57
2023-04-03T13:30:28.327Z,78.77
2023-04-03T13:32:57.720Z,78.37
2023-04-03T13:35:37.486Z,78.20
2023-04-03T13:38:09.210Z,79.00
2023-04-03T13:40:49.997Z,79.83
2023-04-03T13:43:23.834Z,77.87
2023-04-03T13:46:06.096Z,81.43
2023-04-03T13:48:39.840Z,82.13
2023-04-03T13:51:21.078Z,78.80
2023-04-03T13:53:51.574Z,76.57
2023-04-03T13:56:26.396Z,78.80
2023-04-03T13:59:11.055Z,78.23
2023-04-03T14:01:46.020Z,80.97
2023-04-03T14:04:18.611Z,78.03
2023-04-03T14:06:49.639Z,82.03
2023-04-03T14:09:18.631Z,80.37
2023-04-03T14:11:48.364Z,80.50
2023-04-03T14:14:20.254Z,81.80
2023-04-03T14:16:52.070Z,84.77
2023-04-03T14:19:23.987Z,84.30
2023-04-03T14:21:56.793Z,80.87
2023-04-03T14:24:25.654Z,82.87
2023-04-03T14:26:55.811Z,85.97
2023-04-03T14:29:24.254Z,87.13
2023-04-03T14:32:03.744Z,87.80
2023-04-03T14:34:39.944Z,89.37
2023-04-03T14:37:12.670Z,88.80
2023-04-03T14:39:41.125Z,88.80
2023-04-03T14:42:14.693Z,86.67
2023-04-03T14:44:42.906Z,85.63
2023-04-03T14:47:23.307Z,83.83
2023-04-03T14:49:58.595Z,81.23
2023-04-03T14:52:31.797Z,75.43
2023-04-03T14:55:01.320Z,77.57
2023-04-03T14:57:31.448Z,76.50
2023-04-03T15:00:06.550Z,73.70
2023-04-03T15:02:37.305Z,76.10
2023-04-03T15:05:08.188Z,71.70
2023-04-03T15:07:39.824Z,75.53
2023-04-03T15:10:19.022Z,71.27
2023-04-03T15:12:47.874Z,71.10
2023-04-03T15:15:18.035Z,70.57
2023-04-03T15:17:48.604Z,71.90
2023-04-03T15:20:18.172Z,69.80
2023-04-03T15:22:47.770Z,71.87
2023-04-03T15:25:16.348Z,67.57
2023-04-03T15:27:44.847Z,71.43
2023-04-03T15:30:18.260Z,68.77
2023-04-03T15:32:46.583Z,72.70
2023-04-03T15:35:14.935Z,69.70
2023-04-03T15:37:43.604Z,71.33
2023-04-03T15:40:13.716Z,68.57
2023-04-03T15:42:42.292Z,68.70
2023-04-03T15:45:11.495Z,68.17
2023-04-03T15:47:39.928Z,68.57
2023-04-03T15:50:09.027Z,66.63
2023-04-03T15:52:37.589Z,69.73
2023-04-03T15:55:06.986Z,65.83
2023-04-03T16:00:11.119Z,67.33
2023-04-03T16:02:39.139Z,68.93
2023-04-03T16:05:08.277Z,65.57
2023-04-03T16:07:36.545Z,71.27
2023-04-03T16:10:04.917Z,71.13
2023-04-03T16:12:33.000Z,76.53
2023-04-03T16:15:02.509Z,82.53
2023-04-03T16:17:31.120Z,84.07
2023-04-03T16:19:59.168Z,88.80
2023-04-03T16:22:29.533Z,87.97
2023-04-03T16:24:57.550Z,85.70
2023-04-03T16:27:28.485Z,83.83
2023-04-03T16:29:56.587Z,79.73
2023-04-03T16:32:28.731Z,78.07
2023-04-03T16:34:56.884Z,78.07
2023-04-03T16:37:25.410Z,74.27
2023-04-03T16:39:54.596Z,73.47
2023-04-03T16:42:22.621Z,72.43
2023-04-03T16:44:50.725Z,68.33
2023-04-03T16:47:20.183Z,68.43
2023-04-03T16:49:49.734Z,69.83
2023-04-03T16:52:17.878Z,65.60
2023-04-03T16:54:45.936Z,67.93
2023-04-03T16:57:13.884Z,64.97
2023-04-03T16:59:41.865Z,63.60
2023-04-03T17:02:09.785Z,62.70
2023-04-03T17:04:37.795Z,65.27
2023-04-03T17:07:07.237Z,63.80
2023-04-03T17:09:35.837Z,67.67
2023-04-03T17:12:04.375Z,64.53
2023-04-03T17:14:32.432Z,63.20
2023-04-03T17:17:00.780Z,66.30
2023-04-03T17:19:29.988Z,63.60
2023-04-03T17:21:58.421Z,62.33
2023-04-03T17:24:28.556Z,61.10
2023-04-03T17:26:56.704Z,63.00
2023-04-03T17:29:24.675Z,61.43
2023-04-03T17:31:52.844Z,62.10
2023-04-03T17:34:20.924Z,60.67
2023-04-03T17:36:49.320Z,60.67
2023-04-03T17:39:17.349Z,63.27
2023-04-03T17:41:46.834Z,62.43
2023-04-03T17:44:14.965Z,59.00
2023-04-03T17:46:43.082Z,61.23
2023-04-03T17:49:14.793Z,58.80
2023-04-03T17:51:43.346Z,60.70
2023-04-03T17:54:11.472Z,59.93
2023-04-03T17:56:39.498Z,61.40
2023-04-03T17:59:08.932Z,60.30
2023-04-03T18:01:36.958Z,59.57
2023-04-03T18:04:06.181Z,57.20
2023-04-03T18:06:39.486Z,57.03
2023-04-03T18:09:10.910Z,56.97
2023-04-03T18:11:39.211Z,58.13
2023-04-03T18:14:09.856Z,55.23
2023-04-03T18:16:37.879Z,59.37
2023-04-03T18:19:21.951Z,56.93
2023-04-03T18:21:52.156Z,55.20
2023-04-03T18:24:23.026Z,56.20
2023-04-03T18:26:54.926Z,58.00
2023-04-03T18:29:24.852Z,56.57
2023-04-03T18:31:56.380Z,55.93
2023-04-03T18:34:24.430Z,55.13
2023-04-03T18:36:52.498Z,55.00
2023-04-03T18:39:21.104Z,58.03
2023-04-03T18:41:50.618Z,55.43
2023-04-03T18:44:22.001Z,55.57
2023-04-03T18:46:52.650Z,56.37
2023-04-03T18:49:21.167Z,55.97
2023-04-03T18:51:49.273Z,56.83
2023-04-03T18:54:17.266Z,55.23
2023-04-03T18:56:45.283Z,58.47
2023-04-03T18:59:13.325Z,55.10
2023-04-03T19:01:41.790Z,56.87
2023-04-03T19:04:11.560Z,56.07
2023-04-03T19:06:39.724Z,57.83
2023-04-03T19:09:08.383Z,56.17
2023-04-03T19:11:36.683Z,55.80
2023-04-03T19:14:16.161Z,55.17
2023-04-03T19:16:45.248Z,55.47
2023-04-03T19:19:14.915Z,52.87
2023-04-03T19:21:42.981Z,56.60
2023-04-03T19:24:11.956Z,54.07
2023-04-03T19:26:40.271Z,55.70
2023-04-03T19:29:08.486Z,53.33
2023-04-03T19:31:37.742Z,55.20
2023-04-03T19:34:06.775Z,56.53
2023-04-03T19:36:36.995Z,55.80
2023-04-03T19:39:05.195Z,55.33
2023-04-03T19:41:36.580Z,56.17
2023-04-03T19:44:05.858Z,55.90
2023-04-03T19:46:34.384Z,55.73
2023-04-03T19:49:02.438Z,55.00
2023-04-03T19:51:30.680Z,53.90
2023-04-03T19:54:00.076Z,54.70
2023-04-03T19:56:28.246Z,56.27
2023-04-03T19:58:56.969Z,53.93
2023-04-03T20:01:26.994Z,53.23
2023-04-03T20:03:55.376Z,55.00
2023-04-03T20:06:23.396Z,55.33
2023-04-03T20:08:51.514Z,56.37
2023-04-03T20:11:21.047Z,54.67
2023-04-03T20:13:50.468Z,56.47
2023-04-03T20:16:19.411Z,53.37
2023-04-03T20:18:47.605Z,55.23
2023-04-03T20:21:15.940Z,54.30
2023-04-03T20:23:44.972Z,53.87
2023-04-03T20:26:23.574Z,53.40
2023-04-03T20:28:52.338Z,55.27
2023-04-03T20:31:20.811Z,52.33
2023-04-03T20:33:48.870Z,54.37
2023-04-03T20:36:16.924Z,52.53
2023-04-03T20:38:45.433Z,53.63
2023-04-03T20:41:13.500Z,52.27
2023-04-03T20:43:43.166Z,55.57
2023-04-03T20:46:13.934Z,51.47
2023-04-03T20:48:42.244Z,53.53
2023-04-03T20:51:11.185Z,50.10
2023-04-03T20:53:39.450Z,52.43
2023-04-03T20:56:08.979Z,51.20
2023-04-03T20:58:38.957Z,51.50
2023-04-03T21:01:17.308Z,51.23
2023-04-03T21:03:46.220Z,52.40
2023-04-03T21:06:51.833Z,51.23
2023-04-03T21:09:57.896Z,50.17
2023-04-03T21:13:03.180Z,51.07
2023-04-03T21:15:52.006Z,50.20
2023-04-03T21:18:52.701Z,51.27
2023-04-03T21:21:24.553Z,49.70
2023-04-03T21:23:54.116Z,51.97
2023-04-03T21:26:22.907Z,50.30
2023-04-03T21:28:52.186Z,51.87
2023-04-03T21:31:21.939Z,50.23
2023-04-03T21:33:50.107Z,52.03
2023-04-03T21:36:18.147Z,49.97
2023-04-03T21:38:48.146Z,52.30
2023-04-03T21:41:16.329Z,49.67
2023-04-03T21:43:46.986Z,51.43
2023-04-03T21:46:15.849Z,50.20
2023-04-03T21:48:45.578Z,51.50
2023-04-03T21:51:13.536Z,49.47
2023-04-03T21:53:42.633Z,50.57
2023-04-03T21:56:12.264Z,48.43
2023-04-03T21:58:40.342Z,47.57
2023-04-03T22:01:11.628Z,48.43
2023-04-03T22:03:41.353Z,48.70
2023-04-03T22:06:09.932Z,47.93
2023-04-03T22:08:38.037Z,48.87
2023-04-03T22:11:07.958Z,47.43
2023-04-03T22:13:37.954Z,48.63
2023-04-03T22:16:06.610Z,48.20
2023-04-03T22:18:35.483Z,46.13
2023-04-03T22:21:03.682Z,45.00
2023-04-03T22:23:31.761Z,43.40
2023-04-03T22:26:01.205Z,43.40
2023-04-03T22:28:29.487Z,43.07
2023-04-03T22:31:01.739Z,44.00
2023-04-03T22:33:29.744Z,40.57
2023-04-03T22:35:57.921Z,42.73
2023-04-03T22:38:25.953Z,41.63
2023-04-03T22:41:01.348Z,44.77
2023-04-03T22:43:30.494Z,42.17
2023-04-03T22:46:02.211Z,44.37
2023-04-03T22:48:30.846Z,42.07
2023-04-03T22:50:59.081Z,41.37
2023-04-03T22:53:27.092Z,42.07
2023-04-03T22:55:56.393Z,43.43
2023-04-03T22:58:26.392Z,41.50
2023-04-03T23:00:55.574Z,41.50
2023-04-03T23:03:26.095Z,41.87
2023-04-03T23:05:56.105Z,41.43
2023-04-03T23:08:24.332Z,39.80
2023-04-03T23:10:55.895Z,42.67
2023-04-03T23:13:24.093Z,40.37
2023-04-03T23:15:55.315Z,41.67
2023-04-03T23:18:24.869Z,40.77
2023-04-03T23:20:54.729Z,42.67
2023-04-03T23:23:23.783Z,38.33
2023-04-03T23:25:55.012Z,40.40
2023-04-03T23:28:22.968Z,39.07
2023-04-03T23:30:51.717Z,42.73
2023-04-03T23:33:19.699Z,39.33
2023-04-03T23:35:49.261Z,40.70
2023-04-03T23:38:17.605Z,38.87
2023-04-03T23:40:47.067Z,41.83
2023-04-03T23:43:15.234Z,39.43
2023-04-03T23:45:45.258Z,40.97
2023-04-03T23:48:13.254Z,38.93
2023-04-03T23:50:42.107Z,39.07
2023-04-03T23:53:12.944Z,39.37
2023-04-03T23:55:41.045Z,38.77
2023-04-03T23:58:09.048Z,39.97
